sensor_id;sensor_type;location;lat;lon;timestamp;P1;P2;P0
52290;PMS5003;39663;45.432;28.050;2024-02-26T00:00:06;26.0;21.0;
52290;PMS5003;39663;45.432;28.050;2024-02-26T00:00:38;22.0;19.0;
52290;PMS5003;39663;45.432;28.050;2024-02-26T00:01:10;24.0;21.0;
52290;PMS5003;39663;45.432;28.050;2024-02-26T00:01:41;25.0;21.0;
52290;PMS5003;39663;45.432;28.050;2024-02-26T00:02:13;25.0;22.0;
52290;PMS5003;39663;45.432;28.050;2024-02-26T00:02:44;25.0;23.0;
52290;PMS5003;39663;45.432;28.050;2024-02-26T00:03:16;21.0;19.0;
52290;PMS5003;39663;45.432;28.050;2024-02-26T00:03:47;30.0;24.0;
52290;PMS5003;39663;45.432;28.050;2024-02-26T00:04:19;27.0;23.0;
52290;PMS5003;39663;45.432;28.050;2024-02-26T00:04:50;30.0;24.0;
52290;PMS5003;39663;45.432;28.050;2024-02-26T00:05:22;30.0;26.0;
52290;PMS5003;39663;45.432;28.050;2024-02-26T00:05:54;24.0;19.0;
52290;PMS5003;39663;45.432;28.050;2024-02-26T00:06:25;20.0;19.0;
52290;PMS5003;39663;45.432;28.050;2024-02-26T00:06:56;29.0;25.0;
52290;PMS5003;39663;45.432;28.050;2024-02-26T00:07:28;18.0;18.0;
52290;PMS5003;39663;45.432;28.050;2024-02-26T00:07:59;20.0;20.0;
52290;PMS5003;39663;45.432;28.050;2024-02-26T00:08:31;17.0;17.0;
52290;PMS5003;39663;45.432;28.050;2024-02-26T00:09:03;22.0;20.0;
52290;PMS5003;39663;45.432;28.050;2024-02-26T00:09:34;26.0;25.0;
52290;PMS5003;39663;45.432;28.050;2024-02-26T00:10:06;22.0;22.0;
52290;PMS5003;39663;45.432;28.050;2024-02-26T00:10:38;18.0;17.0;
52290;PMS5003;39663;45.432;28.050;2024-02-26T00:11:09;27.0;21.0;
52290;PMS5003;39663;45.432;28.050;2024-02-26T00:11:41;27.0;20.0;
52290;PMS5003;39663;45.432;28.050;2024-02-26T00:12:12;20.0;17.0;
52290;PMS5003;39663;45.432;28.050;2024-02-26T00:12:44;26.0;21.0;
52290;PMS5003;39663;45.432;28.050;2024-02-26T00:13:15;20.0;19.0;
52290;PMS5003;39663;45.432;28.050;2024-02-26T00:13:47;30.0;23.0;
52290;PMS5003;39663;45.432;28.050;2024-02-26T00:14:18;23.0;18.0;
52290;PMS5003;39663;45.432;28.050;2024-02-26T00:14:49;24.0;21.0;
52290;PMS5003;39663;45.432;28.050;2024-02-26T00:15:21;22.0;19.0;
52290;PMS5003;39663;45.432;28.050;2024-02-26T00:15:52;28.0;22.0;
52290;PMS5003;39663;45.432;28.050;2024-02-26T00:16:24;27.0;20.0;
52290;PMS5003;39663;45.432;28.050;2024-02-26T00:16:55;23.0;21.0;
52290;PMS5003;39663;45.432;28.050;2024-02-26T00:17:26;16.0;14.0;
52290;PMS5003;39663;45.432;28.050;2024-02-26T00:17:58;18.0;18.0;
52290;PMS5003;39663;45.432;28.050;2024-02-26T00:18:29;19.0;17.0;
52290;PMS5003;39663;45.432;28.050;2024-02-26T00:19:01;23.0;17.0;
52290;PMS5003;39663;45.432;28.050;2024-02-26T00:19:32;23.0;20.0;
52290;PMS5003;39663;45.432;28.050;2024-02-26T00:20:06;22.0;15.0;
52290;PMS5003;39663;45.432;28.050;2024-02-26T00:20:37;19.0;17.0;
52290;PMS5003;39663;45.432;28.050;2024-02-26T00:21:09;24.0;24.0;
52290;PMS5003;39663;45.432;28.050;2024-02-26T00:21:40;22.0;20.0;
52290;PMS5003;39663;45.432;28.050;2024-02-26T00:22:12;17.0;17.0;
52290;PMS5003;39663;45.432;28.050;2024-02-26T00:22:43;21.0;18.0;
52290;PMS5003;39663;45.432;28.050;2024-02-26T00:23:15;33.0;27.0;
52290;PMS5003;39663;45.432;28.050;2024-02-26T00:23:46;19.0;17.0;
52290;PMS5003;39663;45.432;28.050;2024-02-26T00:24:19;20.0;20.0;
52290;PMS5003;39663;45.432;28.050;2024-02-26T00:24:51;20.0;17.0;
52290;PMS5003;39663;45.432;28.050;2024-02-26T00:25:22;31.0;23.0;
52290;PMS5003;39663;45.432;28.050;2024-02-26T00:25:53;25.0;23.0;
52290;PMS5003;39663;45.432;28.050;2024-02-26T00:26:25;19.0;18.0;
52290;PMS5003;39663;45.432;28.050;2024-02-26T00:26:56;20.0;18.0;
52290;PMS5003;39663;45.432;28.050;2024-02-26T00:27:28;26.0;20.0;
52290;PMS5003;39663;45.432;28.050;2024-02-26T00:28:00;22.0;19.0;
52290;PMS5003;39663;45.432;28.050;2024-02-26T00:28:31;22.0;19.0;
52290;PMS5003;39663;45.432;28.050;2024-02-26T00:29:03;33.0;27.0;
52290;PMS5003;39663;45.432;28.050;2024-02-26T00:29:34;23.0;19.0;
52290;PMS5003;39663;45.432;28.050;2024-02-26T00:30:06;27.0;19.0;
52290;PMS5003;39663;45.432;28.050;2024-02-26T00:30:38;21.0;18.0;
52290;PMS5003;39663;45.432;28.050;2024-02-26T00:31:09;20.0;19.0;
52290;PMS5003;39663;45.432;28.050;2024-02-26T00:31:41;20.0;19.0;
52290;PMS5003;39663;45.432;28.050;2024-02-26T00:32:12;20.0;19.0;
52290;PMS5003;39663;45.432;28.050;2024-02-26T00:32:44;22.0;22.0;
52290;PMS5003;39663;45.432;28.050;2024-02-26T00:33:16;27.0;24.0;
52290;PMS5003;39663;45.432;28.050;2024-02-26T00:33:47;29.0;23.0;
52290;PMS5003;39663;45.432;28.050;2024-02-26T00:34:19;18.0;15.0;
52290;PMS5003;39663;45.432;28.050;2024-02-26T00:34:50;19.0;18.0;
52290;PMS5003;39663;45.432;28.050;2024-02-26T00:35:22;19.0;17.0;
52290;PMS5003;39663;45.432;28.050;2024-02-26T00:35:53;20.0;15.0;
52290;PMS5003;39663;45.432;28.050;2024-02-26T00:36:24;25.0;23.0;
52290;PMS5003;39663;45.432;28.050;2024-02-26T00:36:56;23.0;21.0;
52290;PMS5003;39663;45.432;28.050;2024-02-26T00:37:28;23.0;20.0;
52290;PMS5003;39663;45.432;28.050;2024-02-26T00:37:59;18.0;16.0;
52290;PMS5003;39663;45.432;28.050;2024-02-26T00:38:31;24.0;22.0;
52290;PMS5003;39663;45.432;28.050;2024-02-26T00:39:02;22.0;18.0;
52290;PMS5003;39663;45.432;28.050;2024-02-26T00:39:34;22.0;19.0;
52290;PMS5003;39663;45.432;28.050;2024-02-26T00:40:06;25.0;24.0;
52290;PMS5003;39663;45.432;28.050;2024-02-26T00:40:38;19.0;17.0;
52290;PMS5003;39663;45.432;28.050;2024-02-26T00:41:09;28.0;21.0;
52290;PMS5003;39663;45.432;28.050;2024-02-26T00:41:41;16.0;16.0;
52290;PMS5003;39663;45.432;28.050;2024-02-26T00:42:12;23.0;18.0;
52290;PMS5003;39663;45.432;28.050;2024-02-26T00:42:43;17.0;17.0;
52290;PMS5003;39663;45.432;28.050;2024-02-26T00:43:15;15.0;14.0;
52290;PMS5003;39663;45.432;28.050;2024-02-26T00:43:46;21.0;14.0;
52290;PMS5003;39663;45.432;28.050;2024-02-26T00:44:18;18.0;17.0;
52290;PMS5003;39663;45.432;28.050;2024-02-26T00:44:50;21.0;20.0;
52290;PMS5003;39663;45.432;28.050;2024-02-26T00:45:21;23.0;18.0;
52290;PMS5003;39663;45.432;28.050;2024-02-26T00:45:52;19.0;18.0;
52290;PMS5003;39663;45.432;28.050;2024-02-26T00:46:24;22.0;16.0;
52290;PMS5003;39663;45.432;28.050;2024-02-26T00:46:55;19.0;17.0;
52290;PMS5003;39663;45.432;28.050;2024-02-26T00:47:27;19.0;16.0;
52290;PMS5003;39663;45.432;28.050;2024-02-26T00:47:58;15.0;15.0;
52290;PMS5003;39663;45.432;28.050;2024-02-26T00:48:30;23.0;23.0;
52290;PMS5003;39663;45.432;28.050;2024-02-26T00:49:01;19.0;19.0;
52290;PMS5003;39663;45.432;28.050;2024-02-26T00:49:32;23.0;21.0;
52290;PMS5003;39663;45.432;28.050;2024-02-26T00:50:04;17.0;17.0;
52290;PMS5003;39663;45.432;28.050;2024-02-26T00:50:36;28.0;22.0;
52290;PMS5003;39663;45.432;28.050;2024-02-26T00:51:07;18.0;18.0;
52290;PMS5003;39663;45.432;28.050;2024-02-26T00:51:39;21.0;16.0;
52290;PMS5003;39663;45.432;28.050;2024-02-26T00:52:11;20.0;17.0;
52290;PMS5003;39663;45.432;28.050;2024-02-26T00:52:42;18.0;15.0;
52290;PMS5003;39663;45.432;28.050;2024-02-26T00:53:14;20.0;18.0;
52290;PMS5003;39663;45.432;28.050;2024-02-26T00:53:45;23.0;19.0;
52290;PMS5003;39663;45.432;28.050;2024-02-26T00:54:17;19.0;16.0;
52290;PMS5003;39663;45.432;28.050;2024-02-26T00:54:48;23.0;16.0;
52290;PMS5003;39663;45.432;28.050;2024-02-26T00:55:19;16.0;15.0;
52290;PMS5003;39663;45.432;28.050;2024-02-26T00:55:51;18.0;18.0;
52290;PMS5003;39663;45.432;28.050;2024-02-26T00:56:22;17.0;16.0;
52290;PMS5003;39663;45.432;28.050;2024-02-26T00:56:54;15.0;15.0;
52290;PMS5003;39663;45.432;28.050;2024-02-26T00:57:25;17.0;13.0;
52290;PMS5003;39663;45.432;28.050;2024-02-26T00:57:57;16.0;16.0;
52290;PMS5003;39663;45.432;28.050;2024-02-26T00:58:28;23.0;21.0;
52290;PMS5003;39663;45.432;28.050;2024-02-26T00:58:59;24.0;23.0;
52290;PMS5003;39663;45.432;28.050;2024-02-26T00:59:31;16.0;15.0;
52290;PMS5003;39663;45.432;28.050;2024-02-26T01:00:03;21.0;18.0;
52290;PMS5003;39663;45.432;28.050;2024-02-26T01:00:36;24.0;23.0;
52290;PMS5003;39663;45.432;28.050;2024-02-26T01:01:07;18.0;15.0;
52290;PMS5003;39663;45.432;28.050;2024-02-26T01:01:38;21.0;15.0;
52290;PMS5003;39663;45.432;28.050;2024-02-26T01:02:10;16.0;15.0;
52290;PMS5003;39663;45.432;28.050;2024-02-26T01:02:41;20.0;19.0;
52290;PMS5003;39663;45.432;28.050;2024-02-26T01:03:12;21.0;18.0;
52290;PMS5003;39663;45.432;28.050;2024-02-26T01:03:44;17.0;16.0;
52290;PMS5003;39663;45.432;28.050;2024-02-26T01:04:15;19.0;16.0;
52290;PMS5003;39663;45.432;28.050;2024-02-26T01:04:46;23.0;15.0;
52290;PMS5003;39663;45.432;28.050;2024-02-26T01:05:19;15.0;12.0;
52290;PMS5003;39663;45.432;28.050;2024-02-26T01:05:51;24.0;20.0;
52290;PMS5003;39663;45.432;28.050;2024-02-26T01:06:22;24.0;19.0;
52290;PMS5003;39663;45.432;28.050;2024-02-26T01:06:54;17.0;15.0;
52290;PMS5003;39663;45.432;28.050;2024-02-26T01:07:25;18.0;15.0;
52290;PMS5003;39663;45.432;28.050;2024-02-26T01:07:57;15.0;14.0;
52290;PMS5003;39663;45.432;28.050;2024-02-26T01:08:28;17.0;16.0;
52290;PMS5003;39663;45.432;28.050;2024-02-26T01:08:59;20.0;17.0;
52290;PMS5003;39663;45.432;28.050;2024-02-26T01:09:31;19.0;16.0;
52290;PMS5003;39663;45.432;28.050;2024-02-26T01:10:03;16.0;13.0;
52290;PMS5003;39663;45.432;28.050;2024-02-26T01:10:35;21.0;16.0;
52290;PMS5003;39663;45.432;28.050;2024-02-26T01:11:07;16.0;14.0;
52290;PMS5003;39663;45.432;28.050;2024-02-26T01:11:38;21.0;17.0;
52290;PMS5003;39663;45.432;28.050;2024-02-26T01:12:09;17.0;15.0;
52290;PMS5003;39663;45.432;28.050;2024-02-26T01:12:41;17.0;16.0;
52290;PMS5003;39663;45.432;28.050;2024-02-26T01:13:12;18.0;16.0;
52290;PMS5003;39663;45.432;28.050;2024-02-26T01:13:44;21.0;18.0;
52290;PMS5003;39663;45.432;28.050;2024-02-26T01:14:15;16.0;13.0;
52290;PMS5003;39663;45.432;28.050;2024-02-26T01:14:47;15.0;13.0;
52290;PMS5003;39663;45.432;28.050;2024-02-26T01:15:18;17.0;15.0;
52290;PMS5003;39663;45.432;28.050;2024-02-26T01:15:49;16.0;15.0;
52290;PMS5003;39663;45.432;28.050;2024-02-26T01:16:21;14.0;14.0;
52290;PMS5003;39663;45.432;28.050;2024-02-26T01:16:52;14.0;14.0;
52290;PMS5003;39663;45.432;28.050;2024-02-26T01:17:24;18.0;16.0;
52290;PMS5003;39663;45.432;28.050;2024-02-26T01:17:56;19.0;16.0;
52290;PMS5003;39663;45.432;28.050;2024-02-26T01:18:28;18.0;17.0;
52290;PMS5003;39663;45.432;28.050;2024-02-26T01:19:00;18.0;14.0;
52290;PMS5003;39663;45.432;28.050;2024-02-26T01:19:31;17.0;12.0;
52290;PMS5003;39663;45.432;28.050;2024-02-26T01:20:03;19.0;18.0;
52290;PMS5003;39663;45.432;28.050;2024-02-26T01:20:35;23.0;22.0;
52290;PMS5003;39663;45.432;28.050;2024-02-26T01:21:07;14.0;12.0;
52290;PMS5003;39663;45.432;28.050;2024-02-26T01:21:38;20.0;17.0;
52290;PMS5003;39663;45.432;28.050;2024-02-26T01:22:09;14.0;14.0;
52290;PMS5003;39663;45.432;28.050;2024-02-26T01:22:41;15.0;13.0;
52290;PMS5003;39663;45.432;28.050;2024-02-26T01:23:13;15.0;11.0;
52290;PMS5003;39663;45.432;28.050;2024-02-26T01:23:44;18.0;17.0;
52290;PMS5003;39663;45.432;28.050;2024-02-26T01:24:16;15.0;14.0;
52290;PMS5003;39663;45.432;28.050;2024-02-26T01:24:47;17.0;14.0;
52290;PMS5003;39663;45.432;28.050;2024-02-26T01:25:19;21.0;16.0;
52290;PMS5003;39663;45.432;28.050;2024-02-26T01:25:50;14.0;14.0;
52290;PMS5003;39663;45.432;28.050;2024-02-26T01:26:22;15.0;13.0;
52290;PMS5003;39663;45.432;28.050;2024-02-26T01:26:53;20.0;15.0;
52290;PMS5003;39663;45.432;28.050;2024-02-26T01:27:25;15.0;13.0;
52290;PMS5003;39663;45.432;28.050;2024-02-26T01:27:56;16.0;13.0;
52290;PMS5003;39663;45.432;28.050;2024-02-26T01:28:28;12.0;10.0;
52290;PMS5003;39663;45.432;28.050;2024-02-26T01:28:59;13.0;11.0;
52290;PMS5003;39663;45.432;28.050;2024-02-26T01:29:30;14.0;13.0;
52290;PMS5003;39663;45.432;28.050;2024-02-26T01:30:02;13.0;13.0;
52290;PMS5003;39663;45.432;28.050;2024-02-26T01:30:34;11.0;11.0;
52290;PMS5003;39663;45.432;28.050;2024-02-26T01:31:05;15.0;14.0;
52290;PMS5003;39663;45.432;28.050;2024-02-26T01:31:37;19.0;15.0;
52290;PMS5003;39663;45.432;28.050;2024-02-26T01:32:08;18.0;16.0;
52290;PMS5003;39663;45.432;28.050;2024-02-26T01:32:39;17.0;15.0;
52290;PMS5003;39663;45.432;28.050;2024-02-26T01:33:11;13.0;13.0;
52290;PMS5003;39663;45.432;28.050;2024-02-26T01:33:42;16.0;15.0;
52290;PMS5003;39663;45.432;28.050;2024-02-26T01:34:14;17.0;14.0;
52290;PMS5003;39663;45.432;28.050;2024-02-26T01:34:45;14.0;14.0;
52290;PMS5003;39663;45.432;28.050;2024-02-26T01:35:16;16.0;15.0;
52290;PMS5003;39663;45.432;28.050;2024-02-26T01:35:48;15.0;14.0;
52290;PMS5003;39663;45.432;28.050;2024-02-26T01:36:19;15.0;14.0;
52290;PMS5003;39663;45.432;28.050;2024-02-26T01:36:50;15.0;14.0;
52290;PMS5003;39663;45.432;28.050;2024-02-26T01:37:22;14.0;13.0;
52290;PMS5003;39663;45.432;28.050;2024-02-26T01:37:53;13.0;11.0;
52290;PMS5003;39663;45.432;28.050;2024-02-26T01:38:24;21.0;17.0;
52290;PMS5003;39663;45.432;28.050;2024-02-26T01:38:56;19.0;14.0;
52290;PMS5003;39663;45.432;28.050;2024-02-26T01:39:27;19.0;16.0;
52290;PMS5003;39663;45.432;28.050;2024-02-26T01:39:59;21.0;17.0;
52290;PMS5003;39663;45.432;28.050;2024-02-26T01:40:30;14.0;13.0;
52290;PMS5003;39663;45.432;28.050;2024-02-26T01:41:01;20.0;14.0;
52290;PMS5003;39663;45.432;28.050;2024-02-26T01:41:33;22.0;20.0;
52290;PMS5003;39663;45.432;28.050;2024-02-26T01:42:04;16.0;15.0;
52290;PMS5003;39663;45.432;28.050;2024-02-26T01:42:38;13.0;12.0;
52290;PMS5003;39663;45.432;28.050;2024-02-26T01:43:09;19.0;12.0;
52290;PMS5003;39663;45.432;28.050;2024-02-26T01:43:41;12.0;12.0;
52290;PMS5003;39663;45.432;28.050;2024-02-26T01:44:12;16.0;14.0;
52290;PMS5003;39663;45.432;28.050;2024-02-26T01:44:44;18.0;16.0;
52290;PMS5003;39663;45.432;28.050;2024-02-26T01:45:16;20.0;19.0;
52290;PMS5003;39663;45.432;28.050;2024-02-26T01:45:47;15.0;13.0;
52290;PMS5003;39663;45.432;28.050;2024-02-26T01:46:19;14.0;13.0;
52290;PMS5003;39663;45.432;28.050;2024-02-26T01:46:50;16.0;13.0;
52290;PMS5003;39663;45.432;28.050;2024-02-26T01:47:22;13.0;13.0;
52290;PMS5003;39663;45.432;28.050;2024-02-26T01:47:54;16.0;13.0;
52290;PMS5003;39663;45.432;28.050;2024-02-26T01:48:27;12.0;11.0;
52290;PMS5003;39663;45.432;28.050;2024-02-26T01:48:58;17.0;16.0;
52290;PMS5003;39663;45.432;28.050;2024-02-26T01:49:31;17.0;11.0;
52290;PMS5003;39663;45.432;28.050;2024-02-26T01:50:03;18.0;13.0;
52290;PMS5003;39663;45.432;28.050;2024-02-26T01:50:35;21.0;18.0;
52290;PMS5003;39663;45.432;28.050;2024-02-26T01:51:06;20.0;18.0;
52290;PMS5003;39663;45.432;28.050;2024-02-26T01:51:39;15.0;10.0;
52290;PMS5003;39663;45.432;28.050;2024-02-26T01:52:12;18.0;12.0;
52290;PMS5003;39663;45.432;28.050;2024-02-26T01:52:44;12.0;11.0;
52290;PMS5003;39663;45.432;28.050;2024-02-26T01:53:17;12.0;10.0;
52290;PMS5003;39663;45.432;28.050;2024-02-26T01:53:50;13.0;9.0;
52290;PMS5003;39663;45.432;28.050;2024-02-26T01:54:22;17.0;13.0;
52290;PMS5003;39663;45.432;28.050;2024-02-26T01:54:54;13.0;11.0;
52290;PMS5003;39663;45.432;28.050;2024-02-26T01:55:25;13.0;12.0;
52290;PMS5003;39663;45.432;28.050;2024-02-26T01:55:57;12.0;12.0;
52290;PMS5003;39663;45.432;28.050;2024-02-26T01:56:29;13.0;13.0;
52290;PMS5003;39663;45.432;28.050;2024-02-26T01:57:02;15.0;11.0;
52290;PMS5003;39663;45.432;28.050;2024-02-26T01:57:35;14.0;13.0;
52290;PMS5003;39663;45.432;28.050;2024-02-26T01:58:06;23.0;14.0;
52290;PMS5003;39663;45.432;28.050;2024-02-26T01:58:39;15.0;13.0;
52290;PMS5003;39663;45.432;28.050;2024-02-26T02:01:34;12.0;11.0;
52290;PMS5003;39663;45.432;28.050;2024-02-26T02:02:07;11.0;11.0;
52290;PMS5003;39663;45.432;28.050;2024-02-26T02:02:41;11.0;10.0;
52290;PMS5003;39663;45.432;28.050;2024-02-26T02:03:12;16.0;12.0;
52290;PMS5003;39663;45.432;28.050;2024-02-26T02:03:45;16.0;13.0;
52290;PMS5003;39663;45.432;28.050;2024-02-26T02:04:16;14.0;14.0;
52290;PMS5003;39663;45.432;28.050;2024-02-26T02:04:48;12.0;11.0;
52290;PMS5003;39663;45.432;28.050;2024-02-26T02:05:20;16.0;13.0;
52290;PMS5003;39663;45.432;28.050;2024-02-26T02:05:52;14.0;11.0;
52290;PMS5003;39663;45.432;28.050;2024-02-26T02:06:24;16.0;12.0;
52290;PMS5003;39663;45.432;28.050;2024-02-26T02:06:55;13.0;10.0;
52290;PMS5003;39663;45.432;28.050;2024-02-26T02:07:28;11.0;11.0;
52290;PMS5003;39663;45.432;28.050;2024-02-26T02:08:00;18.0;15.0;
52290;PMS5003;39663;45.432;28.050;2024-02-26T02:08:32;15.0;13.0;
52290;PMS5003;39663;45.432;28.050;2024-02-26T02:09:04;14.0;11.0;
52290;PMS5003;39663;45.432;28.050;2024-02-26T02:09:35;16.0;12.0;
52290;PMS5003;39663;45.432;28.050;2024-02-26T02:10:08;19.0;17.0;
52290;PMS5003;39663;45.432;28.050;2024-02-26T02:10:40;12.0;12.0;
52290;PMS5003;39663;45.432;28.050;2024-02-26T02:11:12;16.0;12.0;
52290;PMS5003;39663;45.432;28.050;2024-02-26T02:11:44;13.0;11.0;
52290;PMS5003;39663;45.432;28.050;2024-02-26T02:12:15;22.0;13.0;
52290;PMS5003;39663;45.432;28.050;2024-02-26T02:12:46;17.0;13.0;
52290;PMS5003;39663;45.432;28.050;2024-02-26T02:13:18;12.0;11.0;
52290;PMS5003;39663;45.432;28.050;2024-02-26T02:13:50;10.0;9.0;
52290;PMS5003;39663;45.432;28.050;2024-02-26T02:14:21;16.0;12.0;
52290;PMS5003;39663;45.432;28.050;2024-02-26T02:14:53;14.0;10.0;
52290;PMS5003;39663;45.432;28.050;2024-02-26T02:15:25;14.0;13.0;
52290;PMS5003;39663;45.432;28.050;2024-02-26T02:15:56;15.0;10.0;
52290;PMS5003;39663;45.432;28.050;2024-02-26T02:16:28;17.0;12.0;
52290;PMS5003;39663;45.432;28.050;2024-02-26T02:16:59;11.0;11.0;
52290;PMS5003;39663;45.432;28.050;2024-02-26T02:17:31;14.0;12.0;
52290;PMS5003;39663;45.432;28.050;2024-02-26T02:18:03;14.0;11.0;
52290;PMS5003;39663;45.432;28.050;2024-02-26T02:18:35;15.0;14.0;
52290;PMS5003;39663;45.432;28.050;2024-02-26T02:19:07;13.0;12.0;
52290;PMS5003;39663;45.432;28.050;2024-02-26T02:19:38;13.0;11.0;
52290;PMS5003;39663;45.432;28.050;2024-02-26T02:20:14;16.0;14.0;
52290;PMS5003;39663;45.432;28.050;2024-02-26T02:20:47;11.0;11.0;
52290;PMS5003;39663;45.432;28.050;2024-02-26T02:21:18;15.0;14.0;
52290;PMS5003;39663;45.432;28.050;2024-02-26T02:21:49;12.0;9.0;
52290;PMS5003;39663;45.432;28.050;2024-02-26T02:22:21;14.0;13.0;
52290;PMS5003;39663;45.432;28.050;2024-02-26T02:22:52;16.0;12.0;
52290;PMS5003;39663;45.432;28.050;2024-02-26T02:23:24;11.0;11.0;
52290;PMS5003;39663;45.432;28.050;2024-02-26T02:23:55;11.0;11.0;
52290;PMS5003;39663;45.432;28.050;2024-02-26T02:24:26;14.0;9.0;
52290;PMS5003;39663;45.432;28.050;2024-02-26T02:24:57;11.0;11.0;
52290;PMS5003;39663;45.432;28.050;2024-02-26T02:25:29;11.0;9.0;
52290;PMS5003;39663;45.432;28.050;2024-02-26T02:26:00;13.0;13.0;
52290;PMS5003;39663;45.432;28.050;2024-02-26T02:26:32;13.0;13.0;
52290;PMS5003;39663;45.432;28.050;2024-02-26T02:27:04;10.0;10.0;
52290;PMS5003;39663;45.432;28.050;2024-02-26T02:27:35;13.0;11.0;
52290;PMS5003;39663;45.432;28.050;2024-02-26T02:28:07;12.0;9.0;
52290;PMS5003;39663;45.432;28.050;2024-02-26T02:28:38;15.0;13.0;
52290;PMS5003;39663;45.432;28.050;2024-02-26T02:29:11;10.0;10.0;
52290;PMS5003;39663;45.432;28.050;2024-02-26T02:29:45;11.0;9.0;
52290;PMS5003;39663;45.432;28.050;2024-02-26T02:30:18;10.0;10.0;
52290;PMS5003;39663;45.432;28.050;2024-02-26T02:30:54;11.0;10.0;
52290;PMS5003;39663;45.432;28.050;2024-02-26T02:31:26;13.0;12.0;
52290;PMS5003;39663;45.432;28.050;2024-02-26T02:31:58;11.0;11.0;
52290;PMS5003;39663;45.432;28.050;2024-02-26T02:32:31;15.0;12.0;
52290;PMS5003;39663;45.432;28.050;2024-02-26T02:33:03;13.0;11.0;
52290;PMS5003;39663;45.432;28.050;2024-02-26T02:33:35;12.0;10.0;
52290;PMS5003;39663;45.432;28.050;2024-02-26T02:34:07;15.0;12.0;
52290;PMS5003;39663;45.432;28.050;2024-02-26T02:34:39;13.0;13.0;
52290;PMS5003;39663;45.432;28.050;2024-02-26T02:35:11;14.0;12.0;
52290;PMS5003;39663;45.432;28.050;2024-02-26T02:35:43;9.0;9.0;
52290;PMS5003;39663;45.432;28.050;2024-02-26T02:36:15;12.0;10.0;
52290;PMS5003;39663;45.432;28.050;2024-02-26T02:36:50;14.0;14.0;
52290;PMS5003;39663;45.432;28.050;2024-02-26T02:37:23;15.0;12.0;
52290;PMS5003;39663;45.432;28.050;2024-02-26T02:37:55;16.0;12.0;
52290;PMS5003;39663;45.432;28.050;2024-02-26T02:38:28;14.0;12.0;
52290;PMS5003;39663;45.432;28.050;2024-02-26T02:38:59;12.0;11.0;
52290;PMS5003;39663;45.432;28.050;2024-02-26T02:39:31;14.0;11.0;
52290;PMS5003;39663;45.432;28.050;2024-02-26T02:40:02;10.0;10.0;
52290;PMS5003;39663;45.432;28.050;2024-02-26T02:40:34;8.0;8.0;
52290;PMS5003;39663;45.432;28.050;2024-02-26T02:41:06;13.0;10.0;
52290;PMS5003;39663;45.432;28.050;2024-02-26T02:41:37;13.0;9.0;
52290;PMS5003;39663;45.432;28.050;2024-02-26T02:42:09;15.0;14.0;
52290;PMS5003;39663;45.432;28.050;2024-02-26T02:42:40;11.0;11.0;
52290;PMS5003;39663;45.432;28.050;2024-02-26T02:43:12;12.0;12.0;
52290;PMS5003;39663;45.432;28.050;2024-02-26T02:43:43;14.0;8.0;
52290;PMS5003;39663;45.432;28.050;2024-02-26T02:44:14;13.0;11.0;
52290;PMS5003;39663;45.432;28.050;2024-02-26T02:44:46;10.0;9.0;
52290;PMS5003;39663;45.432;28.050;2024-02-26T02:45:17;12.0;12.0;
52290;PMS5003;39663;45.432;28.050;2024-02-26T02:45:49;10.0;10.0;
52290;PMS5003;39663;45.432;28.050;2024-02-26T02:46:20;13.0;10.0;
52290;PMS5003;39663;45.432;28.050;2024-02-26T02:46:52;13.0;11.0;
52290;PMS5003;39663;45.432;28.050;2024-02-26T02:47:23;10.0;8.0;
52290;PMS5003;39663;45.432;28.050;2024-02-26T02:47:54;12.0;10.0;
52290;PMS5003;39663;45.432;28.050;2024-02-26T02:48:26;13.0;10.0;
52290;PMS5003;39663;45.432;28.050;2024-02-26T02:48:57;14.0;11.0;
52290;PMS5003;39663;45.432;28.050;2024-02-26T02:49:29;13.0;11.0;
52290;PMS5003;39663;45.432;28.050;2024-02-26T02:50:01;15.0;9.0;
52290;PMS5003;39663;45.432;28.050;2024-02-26T02:50:33;9.0;9.0;
52290;PMS5003;39663;45.432;28.050;2024-02-26T02:51:04;18.0;13.0;
52290;PMS5003;39663;45.432;28.050;2024-02-26T02:51:36;10.0;10.0;
52290;PMS5003;39663;45.432;28.050;2024-02-26T02:52:07;10.0;10.0;
52290;PMS5003;39663;45.432;28.050;2024-02-26T02:52:39;13.0;11.0;
52290;PMS5003;39663;45.432;28.050;2024-02-26T02:53:11;10.0;8.0;
52290;PMS5003;39663;45.432;28.050;2024-02-26T02:53:42;12.0;10.0;
52290;PMS5003;39663;45.432;28.050;2024-02-26T02:54:14;10.0;8.0;
52290;PMS5003;39663;45.432;28.050;2024-02-26T02:54:45;14.0;12.0;
52290;PMS5003;39663;45.432;28.050;2024-02-26T02:55:17;12.0;10.0;
52290;PMS5003;39663;45.432;28.050;2024-02-26T02:55:49;13.0;11.0;
52290;PMS5003;39663;45.432;28.050;2024-02-26T02:56:20;13.0;12.0;
52290;PMS5003;39663;45.432;28.050;2024-02-26T02:56:51;13.0;11.0;
52290;PMS5003;39663;45.432;28.050;2024-02-26T02:57:23;11.0;10.0;
52290;PMS5003;39663;45.432;28.050;2024-02-26T02:57:55;17.0;12.0;
52290;PMS5003;39663;45.432;28.050;2024-02-26T02:58:26;10.0;9.0;
52290;PMS5003;39663;45.432;28.050;2024-02-26T02:58:57;15.0;12.0;
52290;PMS5003;39663;45.432;28.050;2024-02-26T02:59:29;13.0;11.0;
52290;PMS5003;39663;45.432;28.050;2024-02-26T03:00:01;11.0;10.0;
52290;PMS5003;39663;45.432;28.050;2024-02-26T03:00:32;8.0;8.0;
52290;PMS5003;39663;45.432;28.050;2024-02-26T03:01:04;12.0;10.0;
52290;PMS5003;39663;45.432;28.050;2024-02-26T03:01:36;14.0;11.0;
52290;PMS5003;39663;45.432;28.050;2024-02-26T03:02:07;14.0;13.0;
52290;PMS5003;39663;45.432;28.050;2024-02-26T03:02:39;12.0;9.0;
52290;PMS5003;39663;45.432;28.050;2024-02-26T03:03:10;14.0;14.0;
52290;PMS5003;39663;45.432;28.050;2024-02-26T03:03:42;13.0;10.0;
52290;PMS5003;39663;45.432;28.050;2024-02-26T03:04:13;17.0;13.0;
52290;PMS5003;39663;45.432;28.050;2024-02-26T03:04:45;11.0;11.0;
52290;PMS5003;39663;45.432;28.050;2024-02-26T03:05:17;11.0;11.0;
52290;PMS5003;39663;45.432;28.050;2024-02-26T03:05:48;17.0;14.0;
52290;PMS5003;39663;45.432;28.050;2024-02-26T03:06:20;12.0;9.0;
52290;PMS5003;39663;45.432;28.050;2024-02-26T03:06:51;14.0;12.0;
52290;PMS5003;39663;45.432;28.050;2024-02-26T03:07:23;12.0;11.0;
52290;PMS5003;39663;45.432;28.050;2024-02-26T03:07:54;12.0;11.0;
52290;PMS5003;39663;45.432;28.050;2024-02-26T03:08:26;12.0;11.0;
52290;PMS5003;39663;45.432;28.050;2024-02-26T03:08:58;12.0;12.0;
52290;PMS5003;39663;45.432;28.050;2024-02-26T03:09:29;10.0;9.0;
52290;PMS5003;39663;45.432;28.050;2024-02-26T03:10:01;12.0;10.0;
52290;PMS5003;39663;45.432;28.050;2024-02-26T03:10:33;22.0;16.0;
52290;PMS5003;39663;45.432;28.050;2024-02-26T03:11:04;15.0;10.0;
52290;PMS5003;39663;45.432;28.050;2024-02-26T03:11:36;13.0;10.0;
52290;PMS5003;39663;45.432;28.050;2024-02-26T03:12:08;13.0;12.0;
52290;PMS5003;39663;45.432;28.050;2024-02-26T03:12:39;13.0;12.0;
52290;PMS5003;39663;45.432;28.050;2024-02-26T03:13:11;15.0;11.0;
52290;PMS5003;39663;45.432;28.050;2024-02-26T03:13:42;15.0;13.0;
52290;PMS5003;39663;45.432;28.050;2024-02-26T03:14:14;10.0;9.0;
52290;PMS5003;39663;45.432;28.050;2024-02-26T03:14:46;15.0;11.0;
52290;PMS5003;39663;45.432;28.050;2024-02-26T03:15:17;13.0;11.0;
52290;PMS5003;39663;45.432;28.050;2024-02-26T03:15:49;10.0;9.0;
52290;PMS5003;39663;45.432;28.050;2024-02-26T03:16:20;9.0;9.0;